Time;durP1;ratioP1;P1;durP2;ratioP2;P2;SDS_P1;SDS_P2;PMS_P1;PMS_P2;Temp;Humidity;BMP_temperature;BMP_pressure;BME280_temperature;BME280_humidity;BME280_pressure;Samples;Min_cycle;Max_cycle;Signal;HPM_P1;HPM_P2
2023/03/26 00:46:46;;;;;;;;;;;;;;;9.33;70.97;99385.19;1086439;54;19939;-79
2023/03/26 00:47:53;;;;;;;;;;;;;;;9.36;70.31;99392.06;1086649;47;21049;-80
2023/03/26 00:49:00;;;;;;;;;;;;;;;9.27;70.32;99390.31;1087215;54;19945;-80
2023/03/26 00:50:03;;;;;;;;;;;;;;;9.28;70.40;99397.31;1087321;46;19943;-79
2023/03/26 00:51:07;;;;;;;;;;;;;;;9.23;70.39;99388.94;1087258;54;20018;-80
2023/03/26 00:52:08;;;;;;;;;;;;;;;9.18;70.70;99384.06;1087244;54;19942;-79
2023/03/26 00:53:13;;;;;;;;;;;;;;;9.19;70.64;99389.25;1087198;54;19946;-78
2023/03/26 00:54:14;;;;;;;;;;;;;;;9.19;70.71;99389.25;1087038;54;19942;-79
2023/03/26 00:55:18;;;;;;;;;;;;;;;9.26;70.52;99388.66;1087321;54;19943;-79
2023/03/26 00:56:19;;;;;;;;;;;;;;;9.25;70.69;99381.63;1087645;47;19945;-79
2023/03/26 00:57:29;;;;;;;;;;;;;;;9.24;70.51;99379.97;1088392;46;19946;-79
2023/03/26 00:58:30;;;;;;;;;;;;;;;9.19;70.53;99370.56;1087652;54;19934;-79
2023/03/26 00:59:34;;;;;;;;;;;;;;;9.23;70.82;99373.78;1087694;54;19938;-79
2023/03/26 01:00:38;;;;;;;;;;;;;;;9.17;70.70;99369.88;1087587;54;19950;-79
2023/03/26 01:01:43;;;;;;;;;;;;;;;9.15;71.03;99371.88;1087459;54;19943;-79
2023/03/26 01:02:45;;;;;;;;;;;;;;;9.18;70.81;99365.41;1087691;46;19965;-79
2023/03/26 01:03:58;;;;;;;;;;;;;;;9.21;71.29;99357.94;1087541;54;19946;-79
2023/03/26 01:05:01;;;;;;;;;;;;;;;9.19;70.83;99359.09;1087485;54;19938;-79
2023/03/26 01:06:08;;;;;;;;;;;;;;;9.11;71.56;99351.00;1087599;47;19939;-79
2023/03/26 01:07:11;;;;;;;;;;;;;;;9.07;71.44;99355.78;1087511;54;19939;-79
2023/03/26 01:08:19;;;;;;;;;;;;;;;9.09;71.76;99350.31;1087430;54;19942;-79
2023/03/26 01:09:21;;;;;;;;;;;;;;;9.16;71.23;99340.72;1087475;54;19942;-79
2023/03/26 01:10:25;;;;;;;;;;;;;;;9.15;71.48;99344.38;1089107;39;20201;-79
2023/03/26 01:11:28;;;;;;;;;;;;;;;9.09;71.87;99350.31;1087595;54;19934;-79
2023/03/26 01:12:33;;;;;;;;;;;;;;;9.02;71.71;99344.75;1087706;54;19942;-80
2023/03/26 01:13:35;;;;;;;;;;;;;;;9.03;71.46;99343.75;1087589;54;19954;-79
2023/03/26 01:14:40;;;;;;;;;;;;;;;8.93;72.37;99340.31;1087640;54;19943;-80
2023/03/26 01:24:55;;;;;;;;;;;;;;;9.04;71.36;99310.78;1087451;54;20269;-79
2023/03/26 01:26:04;;;;;;;;;;;;;;;9.10;71.48;99317.34;1087207;54;19943;-79
2023/03/26 01:27:16;;;;;;;;;;;;;;;9.15;71.04;99317.69;1087226;54;19969;-80
2023/03/26 01:28:18;;;;;;;;;;;;;;;9.17;70.53;99305.88;1088409;39;20594;-79
2023/03/26 01:29:24;;;;;;;;;;;;;;;9.18;70.33;99315.56;1087939;39;20629;-81
2023/03/26 01:30:32;;;;;;;;;;;;;;;9.13;70.18;99312.53;1087533;54;19950;-80
2023/03/26 01:31:40;;;;;;;;;;;;;;;9.15;70.33;99313.22;1087555;54;19958;-79
2023/03/26 01:32:59;;;;;;;;;;;;;;;9.13;70.59;99314.34;1087667;54;19944;-79
2023/03/26 01:34:02;;;;;;;;;;;;;;;9.10;70.57;99312.00;1088421;47;19990;-79
2023/03/26 01:35:14;;;;;;;;;;;;;;;9.14;70.57;99316.03;1087568;54;19971;-79
2023/03/26 01:36:17;;;;;;;;;;;;;;;9.16;70.04;99312.19;1087588;54;19942;-79
2023/03/26 01:37:26;;;;;;;;;;;;;;;9.15;69.93;99299.88;1087569;54;19943;-79
2023/03/26 01:38:30;;;;;;;;;;;;;;;9.14;70.25;99302.69;1087651;54;19950;-80
2023/03/26 01:39:39;;;;;;;;;;;;;;;9.15;70.35;99296.38;1087621;54;19949;-80
2023/03/26 01:40:45;;;;;;;;;;;;;;;9.15;70.55;99296.38;1087530;54;19949;-80
2023/03/26 01:41:51;;;;;;;;;;;;;;;9.16;70.00;99296.19;1087477;54;19942;-80
2023/03/26 01:42:55;;;;;;;;;;;;;;;9.13;70.18;99293.88;1087277;54;19962;-80
2023/03/26 01:44:02;;;;;;;;;;;;;;;9.13;69.77;99293.88;1087921;47;19942;-79
2023/03/26 01:45:07;;;;;;;;;;;;;;;9.14;69.79;99279.53;1088508;46;19943;-80
2023/03/26 01:46:12;;;;;;;;;;;;;;;9.14;69.38;99287.53;1087569;54;19982;-80
2023/03/26 01:47:14;;;;;;;;;;;;;;;9.14;69.75;99284.88;1088357;46;19943;-80
2023/03/26 01:48:18;;;;;;;;;;;;;;;9.14;69.34;99286.69;1087699;54;19946;-80
2023/03/26 01:49:19;;;;;;;;;;;;;;;9.14;69.58;99289.34;1088879;46;19947;-81
2023/03/26 01:50:23;;;;;;;;;;;;;;;9.15;69.74;99280.38;1088235;46;19949;-80
2023/03/26 01:51:26;;;;;;;;;;;;;;;9.14;69.47;99284.88;1087735;54;19943;-80
2023/03/26 07:32:41;;;;;;;;;;;;;;;9.91;63.81;98760.13;1086922;54;19951;-80
2023/03/26 07:41:25;;;;;;;;;;;;;;;9.65;64.80;98753.16;1087226;54;19958;-79
2023/03/26 07:45:48;;;;;;;;;;;;;;;9.72;64.62;98748.00;1087204;54;19982;-81
2023/03/26 07:47:13;;;;;;;;;;;;;;;9.81;64.72;98739.81;1088337;46;19927;-79
2023/03/26 07:48:19;;;;;;;;;;;;;;;9.78;63.99;98748.16;1087249;54;19961;-78
2023/03/26 07:49:20;;;;;;;;;;;;;;;9.65;63.75;98738.00;1087411;54;19943;-80
2023/03/26 07:50:33;;;;;;;;;;;;;;;9.71;64.09;98741.84;1087470;54;19950;-79
2023/03/26 07:51:39;;;;;;;;;;;;;;;9.72;64.19;98743.50;1087218;54;19943;-80
2023/03/26 07:53:18;;;;;;;;;;;;;;;9.78;64.21;98741.97;1087158;54;20030;-79
2023/03/26 07:54:21;;;;;;;;;;;;;;;9.76;64.29;98744.81;1087307;54;19931;-80
2023/03/26 07:55:25;;;;;;;;;;;;;;;9.69;64.29;98741.16;1087190;47;19946;-80
2023/03/26 07:56:37;;;;;;;;;;;;;;;9.63;64.34;98745.34;1088733;46;19976;-79
2023/03/26 07:57:49;;;;;;;;;;;;;;;9.65;64.02;98747.84;1087473;46;19950;-79
2023/03/26 07:59:02;;;;;;;;;;;;;;;9.66;64.19;98742.34;1087198;54;20002;-80
2023/03/26 08:00:14;;;;;;;;;;;;;;;9.64;64.49;98738.16;1087372;54;19939;-80
2023/03/26 08:01:20;;;;;;;;;;;;;;;9.61;64.50;98743.88;1087276;54;20008;-79
2023/03/26 08:02:43;;;;;;;;;;;;;;;9.51;65.24;98747.56;1087567;54;19946;-80
2023/03/26 08:04:04;;;;;;;;;;;;;;;9.64;65.04;98736.34;1087679;54;19942;-80
2023/03/26 08:05:40;;;;;;;;;;;;;;;9.55;65.66;98744.53;1090809;39;20539;-79
2023/03/26 08:06:57;;;;;;;;;;;;;;;9.46;66.59;98746.38;1087947;54;19942;-80
2023/03/26 08:08:37;;;;;;;;;;;;;;;9.29;67.94;98742.91;1087997;54;19943;-80
2023/03/26 08:14:28;;;;;;;;;;;;;;;9.29;66.58;98729.56;1087158;54;19990;-79
2023/03/26 08:15:32;;;;;;;;;;;;;;;9.14;65.74;98726.75;1087770;39;20434;-80
2023/03/26 08:16:43;;;;;;;;;;;;;;;9.13;66.45;98736.59;1087843;54;19943;-80
2023/03/26 08:17:49;;;;;;;;;;;;;;;9.10;67.33;98728.91;1087857;54;19954;-80
2023/03/26 08:22:02;;;;;;;;;;;;;;;9.08;68.19;98728.25;1087048;54;19938;-80
2023/03/26 08:24:35;;;;;;;;;;;;;;;9.03;69.11;98733.25;1087539;46;19964;-79
2023/03/26 08:25:43;;;;;;;;;;;;;;;8.94;69.32;98734.25;1087115;54;19943;-81
2023/03/26 08:26:56;;;;;;;;;;;;;;;8.97;69.59;98739.28;1087008;54;19946;-79
2023/03/26 08:28:24;;;;;;;;;;;;;;;8.97;70.04;98733.94;1087200;54;19942;-80
2023/03/26 08:29:56;;;;;;;;;;;;;;;8.88;70.62;98736.56;1087353;54;19943;-79
2023/03/26 08:31:01;;;;;;;;;;;;;;;8.78;71.75;98735.94;1087481;54;19943;-79
2023/03/26 08:32:11;;;;;;;;;;;;;;;8.84;71.05;98729.94;1087804;46;19942;-79
2023/03/26 08:33:15;;;;;;;;;;;;;;;8.88;70.37;98723.25;1087461;54;19970;-79
2023/03/26 08:34:19;;;;;;;;;;;;;;;8.94;70.03;98713.75;1087400;54;19943;-80
2023/03/26 08:35:20;;;;;;;;;;;;;;;8.96;70.39;98711.75;1088719;46;19994;-80
2023/03/26 08:36:24;;;;;;;;;;;;;;;8.98;70.06;98714.25;1087381;54;19945;-79
2023/03/26 08:37:26;;;;;;;;;;;;;;;8.91;70.19;98714.13;1087839;46;19942;-80
2023/03/26 08:38:29;;;;;;;;;;;;;;;8.96;70.46;98713.59;1087411;54;19954;-80
2023/03/26 08:39:31;;;;;;;;;;;;;;;9.00;69.98;98709.59;1087167;54;20204;-81
2023/03/26 08:40:45;;;;;;;;;;;;;;;9.03;70.00;98711.94;1087244;54;19949;-80
2023/03/26 08:42:06;;;;;;;;;;;;;;;9.08;69.90;98714.91;1087117;54;19943;-80
2023/03/26 08:43:32;;;;;;;;;;;;;;;9.06;70.22;98706.28;1087241;46;19950;-80
2023/03/26 08:45:03;;;;;;;;;;;;;;;9.11;69.81;98703.94;1087361;54;20419;-80
2023/03/26 08:46:25;;;;;;;;;;;;;;;9.15;69.63;98704.41;1087061;54;19954;-80
2023/03/26 08:47:40;;;;;;;;;;;;;;;9.14;69.87;98698.28;1087666;39;20154;-81
2023/03/26 08:49:01;;;;;;;;;;;;;;;9.12;69.96;98694.06;1087383;54;19983;-80
2023/03/26 08:50:14;;;;;;;;;;;;;;;9.11;69.70;98690.59;1087664;46;19938;-80
2023/03/26 08:51:33;;;;;;;;;;;;;;;9.07;69.73;98691.91;1088120;46;19950;-80
2023/03/26 08:52:36;;;;;;;;;;;;;;;9.11;69.93;98689.78;1087924;39;20141;-79
2023/03/26 08:53:51;;;;;;;;;;;;;;;9.03;70.08;98694.09;1087578;47;19939;-79
2023/03/26 08:55:12;;;;;;;;;;;;;;;9.09;70.58;98691.78;1087587;47;19949;-78
2023/03/26 08:56:19;;;;;;;;;;;;;;;9.12;70.29;98686.94;1087632;46;19943;-80
2023/03/26 08:57:42;;;;;;;;;;;;;;;8.98;71.82;98698.25;1088154;46;19942;-80
2023/03/26 08:59:03;;;;;;;;;;;;;;;9.01;72.25;98700.59;1087341;54;19986;-77
2023/03/26 09:00:25;;;;;;;;;;;;;;;8.97;72.82;98701.94;1087110;54;19950;-79
2023/03/26 09:01:47;;;;;;;;;;;;;;;9.07;71.73;98699.91;1087411;54;19946;-79
2023/03/26 09:03:06;;;;;;;;;;;;;;;9.05;72.30;98700.09;1087265;54;19951;-80
2023/03/26 09:04:21;;;;;;;;;;;;;;;9.11;71.41;98703.94;1088819;46;19942;-80
2023/03/26 09:05:43;;;;;;;;;;;;;;;9.03;72.38;98701.28;1087010;54;19942;-79
2023/03/26 09:07:06;;;;;;;;;;;;;;;8.89;74.35;98708.09;1087266;54;19943;-79
2023/03/26 09:08:27;;;;;;;;;;;;;;;8.85;74.41;98696.94;1086534;54;20395;-79
2023/03/26 09:09:52;;;;;;;;;;;;;;;8.93;73.64;98684.63;1087286;54;19973;-77
2023/03/26 09:11:19;;;;;;;;;;;;;;;8.97;73.34;98680.63;1087154;54;19998;-79
2023/03/26 09:12:46;;;;;;;;;;;;;;;8.99;72.44;98674.13;1087314;47;19956;-78
2023/03/26 09:14:07;;;;;;;;;;;;;;;9.00;73.29;98674.94;1086360;54;19947;-78
2023/03/26 09:15:26;;;;;;;;;;;;;;;9.00;73.79;98674.94;1086937;54;19942;-77
2023/03/26 09:16:49;;;;;;;;;;;;;;;9.02;73.34;98671.09;1086904;54;19946;-79
2023/03/26 09:18:11;;;;;;;;;;;;;;;8.99;73.21;98663.47;1086771;54;19968;-77
2023/03/26 09:19:30;;;;;;;;;;;;;;;9.02;73.43;98667.63;1087520;46;19947;-78
2023/03/26 09:20:54;;;;;;;;;;;;;;;9.07;73.03;98667.09;1086431;54;20233;-78
